sensor_id;sensor_type;location;lat;lon;timestamp;P1;durP1;ratioP1;P2;durP2;ratioP2
51459;SDS011;37534;39.772;2.718;2023-01-16T00:00:48;8.57;;;5.60;;
51459;SDS011;37534;39.772;2.718;2023-01-16T00:03:14;6.70;;;5.00;;
51459;SDS011;37534;39.772;2.718;2023-01-16T00:05:39;10.65;;;6.20;;
51459;SDS011;37534;39.772;2.718;2023-01-16T00:08:06;6.70;;;5.60;;
51459;SDS011;37534;39.772;2.718;2023-01-16T00:10:31;8.35;;;6.13;;
51459;SDS011;37534;39.772;2.718;2023-01-16T00:12:57;10.23;;;6.10;;
51459;SDS011;37534;39.772;2.718;2023-01-16T00:15:22;10.02;;;6.38;;
51459;SDS011;37534;39.772;2.718;2023-01-16T00:17:48;12.32;;;8.35;;
51459;SDS011;37534;39.772;2.718;2023-01-16T00:20:15;9.93;;;6.82;;
51459;SDS011;37534;39.772;2.718;2023-01-16T00:22:41;12.55;;;6.15;;
51459;SDS011;37534;39.772;2.718;2023-01-16T00:25:06;7.40;;;6.57;;
51459;SDS011;37534;39.772;2.718;2023-01-16T00:27:33;5.55;;;4.38;;
51459;SDS011;37534;39.772;2.718;2023-01-16T00:29:58;14.13;;;4.78;;
51459;SDS011;37534;39.772;2.718;2023-01-16T00:32:24;8.52;;;4.07;;
51459;SDS011;37534;39.772;2.718;2023-01-16T00:34:49;5.50;;;2.50;;
51459;SDS011;37534;39.772;2.718;2023-01-16T00:37:15;7.15;;;3.30;;
51459;SDS011;37534;39.772;2.718;2023-01-16T00:39:40;8.35;;;3.92;;
51459;SDS011;37534;39.772;2.718;2023-01-16T00:42:06;6.93;;;3.78;;
51459;SDS011;37534;39.772;2.718;2023-01-16T00:44:32;11.00;;;4.55;;
51459;SDS011;37534;39.772;2.718;2023-01-16T00:46:58;7.85;;;4.45;;
51459;SDS011;37534;39.772;2.718;2023-01-16T00:49:23;6.18;;;3.95;;
51459;SDS011;37534;39.772;2.718;2023-01-16T00:51:49;4.53;;;3.28;;
51459;SDS011;37534;39.772;2.718;2023-01-16T00:54:14;5.00;;;2.97;;
51459;SDS011;37534;39.772;2.718;2023-01-16T00:56:40;8.88;;;3.33;;
51459;SDS011;37534;39.772;2.718;2023-01-16T00:59:05;10.80;;;3.22;;
51459;SDS011;37534;39.772;2.718;2023-01-16T01:01:31;8.93;;;3.63;;
51459;SDS011;37534;39.772;2.718;2023-01-16T01:03:59;9.57;;;7.82;;
51459;SDS011;37534;39.772;2.718;2023-01-16T01:06:25;8.93;;;6.10;;
51459;SDS011;37534;39.772;2.718;2023-01-16T01:08:51;11.57;;;5.80;;
51459;SDS011;37534;39.772;2.718;2023-01-16T01:11:16;6.88;;;3.90;;
51459;SDS011;37534;39.772;2.718;2023-01-16T01:13:42;8.77;;;3.30;;
51459;SDS011;37534;39.772;2.718;2023-01-16T01:16:09;2.03;;;1.83;;
51459;SDS011;37534;39.772;2.718;2023-01-16T01:18:35;5.07;;;2.50;;
51459;SDS011;37534;39.772;2.718;2023-01-16T01:21:01;4.32;;;2.47;;
51459;SDS011;37534;39.772;2.718;2023-01-16T01:23:27;3.03;;;1.80;;
51459;SDS011;37534;39.772;2.718;2023-01-16T01:25:52;4.28;;;1.63;;
51459;SDS011;37534;39.772;2.718;2023-01-16T01:28:18;2.28;;;0.90;;
51459;SDS011;37534;39.772;2.718;2023-01-16T01:30:44;2.33;;;1.50;;
51459;SDS011;37534;39.772;2.718;2023-01-16T01:33:10;6.25;;;1.45;;
51459;SDS011;37534;39.772;2.718;2023-01-16T01:35:37;3.60;;;0.85;;
51459;SDS011;37534;39.772;2.718;2023-01-16T01:38:03;3.10;;;1.42;;
51459;SDS011;37534;39.772;2.718;2023-01-16T01:40:28;3.58;;;1.55;;
51459;SDS011;37534;39.772;2.718;2023-01-16T01:42:54;1.80;;;1.00;;
51459;SDS011;37534;39.772;2.718;2023-01-16T01:45:27;7.43;;;1.25;;
51459;SDS011;37534;39.772;2.718;2023-01-16T01:50:28;1.77;;;1.23;;
51459;SDS011;37534;39.772;2.718;2023-01-16T01:52:56;1.48;;;0.82;;
51459;SDS011;37534;39.772;2.718;2023-01-16T01:55:25;3.35;;;1.63;;
51459;SDS011;37534;39.772;2.718;2023-01-16T01:57:53;7.03;;;1.67;;
51459;SDS011;37534;39.772;2.718;2023-01-16T02:00:22;4.10;;;1.33;;
51459;SDS011;37534;39.772;2.718;2023-01-16T02:02:52;3.75;;;0.82;;
51459;SDS011;37534;39.772;2.718;2023-01-16T02:05:25;4.10;;;1.08;;
51459;SDS011;37534;39.772;2.718;2023-01-16T02:07:56;10.80;;;1.38;;
51459;SDS011;37534;39.772;2.718;2023-01-16T02:10:34;24.50;;;2.50;;
51459;SDS011;37534;39.772;2.718;2023-01-16T02:13:04;2.53;;;1.20;;
51459;SDS011;37534;39.772;2.718;2023-01-16T02:15:30;2.97;;;1.35;;
51459;SDS011;37534;39.772;2.718;2023-01-16T02:17:56;2.40;;;1.20;;
51459;SDS011;37534;39.772;2.718;2023-01-16T02:20:49;2.85;;;1.27;;
51459;SDS011;37534;39.772;2.718;2023-01-16T02:23:29;4.78;;;1.42;;
51459;SDS011;37534;39.772;2.718;2023-01-16T02:28:56;10.88;;;1.02;;
51459;SDS011;37534;39.772;2.718;2023-01-16T02:36:59;0.55;;;0.55;;
51459;SDS011;37534;39.772;2.718;2023-01-16T02:39:35;3.20;;;1.00;;
51459;SDS011;37534;39.772;2.718;2023-01-16T02:50:36;2.28;;;0.70;;
51459;SDS011;37534;39.772;2.718;2023-01-16T02:53:10;2.10;;;1.17;;
51459;SDS011;37534;39.772;2.718;2023-01-16T02:58:12;6.22;;;1.73;;
51459;SDS011;37534;39.772;2.718;2023-01-16T03:00:53;3.60;;;1.15;;
51459;SDS011;37534;39.772;2.718;2023-01-16T03:06:27;1.85;;;0.80;;
51459;SDS011;37534;39.772;2.718;2023-01-16T03:17:50;12.38;;;1.70;;
51459;SDS011;37534;39.772;2.718;2023-01-16T03:23:10;5.25;;;1.25;;
51459;SDS011;37534;39.772;2.718;2023-01-16T03:28:33;4.53;;;1.33;;
51459;SDS011;37534;39.772;2.718;2023-01-16T03:31:26;2.75;;;0.88;;
51459;SDS011;37534;39.772;2.718;2023-01-16T03:34:18;5.93;;;1.05;;
51459;SDS011;37534;39.772;2.718;2023-01-16T03:36:54;1.65;;;0.60;;
51459;SDS011;37534;39.772;2.718;2023-01-16T03:39:30;2.78;;;1.25;;
51459;SDS011;37534;39.772;2.718;2023-01-16T03:42:04;2.97;;;1.27;;
51459;SDS011;37534;39.772;2.718;2023-01-16T03:44:41;5.85;;;1.00;;
51459;SDS011;37534;39.772;2.718;2023-01-16T03:47:14;3.25;;;1.20;;
51459;SDS011;37534;39.772;2.718;2023-01-16T03:49:46;5.43;;;1.23;;
51459;SDS011;37534;39.772;2.718;2023-01-16T03:52:17;4.15;;;0.95;;
51459;SDS011;37534;39.772;2.718;2023-01-16T03:57:25;1.25;;;0.80;;
51459;SDS011;37534;39.772;2.718;2023-01-16T03:59:57;2.38;;;1.35;;
51459;SDS011;37534;39.772;2.718;2023-01-16T04:05:08;1.80;;;0.93;;
51459;SDS011;37534;39.772;2.718;2023-01-16T04:10:41;1.63;;;0.70;;
51459;SDS011;37534;39.772;2.718;2023-01-16T04:13:10;1.02;;;0.82;;
51459;SDS011;37534;39.772;2.718;2023-01-16T04:15:40;2.67;;;0.98;;
51459;SDS011;37534;39.772;2.718;2023-01-16T04:18:09;1.70;;;0.80;;
51459;SDS011;37534;39.772;2.718;2023-01-16T04:20:35;2.33;;;0.93;;
51459;SDS011;37534;39.772;2.718;2023-01-16T04:23:03;2.88;;;0.95;;
51459;SDS011;37534;39.772;2.718;2023-01-16T04:25:29;6.93;;;0.88;;
51459;SDS011;37534;39.772;2.718;2023-01-16T04:27:54;1.35;;;1.15;;
51459;SDS011;37534;39.772;2.718;2023-01-16T04:30:20;1.45;;;0.93;;
51459;SDS011;37534;39.772;2.718;2023-01-16T04:32:46;4.65;;;1.30;;
51459;SDS011;37534;39.772;2.718;2023-01-16T04:35:11;1.88;;;0.70;;
51459;SDS011;37534;39.772;2.718;2023-01-16T04:37:37;2.05;;;0.93;;
51459;SDS011;37534;39.772;2.718;2023-01-16T04:40:03;3.65;;;0.93;;
51459;SDS011;37534;39.772;2.718;2023-01-16T04:42:29;4.85;;;0.70;;
51459;SDS011;37534;39.772;2.718;2023-01-16T04:44:54;0.30;;;0.30;;
51459;SDS011;37534;39.772;2.718;2023-01-16T04:47:20;9.45;;;1.40;;
51459;SDS011;37534;39.772;2.718;2023-01-16T04:49:45;2.00;;;1.30;;
51459;SDS011;37534;39.772;2.718;2023-01-16T04:52:11;1.27;;;0.88;;
51459;SDS011;37534;39.772;2.718;2023-01-16T04:54:37;3.97;;;1.50;;
51459;SDS011;37534;39.772;2.718;2023-01-16T04:57:03;0.85;;;0.80;;
51459;SDS011;37534;39.772;2.718;2023-01-16T04:59:29;2.90;;;1.38;;
51459;SDS011;37534;39.772;2.718;2023-01-16T05:01:54;1.52;;;0.90;;
51459;SDS011;37534;39.772;2.718;2023-01-16T05:04:20;2.70;;;0.90;;
51459;SDS011;37534;39.772;2.718;2023-01-16T05:06:46;2.55;;;1.00;;
51459;SDS011;37534;39.772;2.718;2023-01-16T05:09:12;2.17;;;1.00;;
51459;SDS011;37534;39.772;2.718;2023-01-16T05:11:37;2.65;;;1.13;;
51459;SDS011;37534;39.772;2.718;2023-01-16T05:14:03;8.35;;;1.13;;
51459;SDS011;37534;39.772;2.718;2023-01-16T05:16:36;1.30;;;0.70;;
51459;SDS011;37534;39.772;2.718;2023-01-16T05:19:02;2.25;;;1.23;;
51459;SDS011;37534;39.772;2.718;2023-01-16T05:21:28;2.38;;;1.30;;
51459;SDS011;37534;39.772;2.718;2023-01-16T05:23:53;4.43;;;1.02;;
51459;SDS011;37534;39.772;2.718;2023-01-16T05:26:19;4.30;;;0.95;;
51459;SDS011;37534;39.772;2.718;2023-01-16T05:28:45;1.90;;;0.98;;
51459;SDS011;37534;39.772;2.718;2023-01-16T05:31:10;3.35;;;1.10;;
51459;SDS011;37534;39.772;2.718;2023-01-16T05:33:36;5.07;;;1.33;;
51459;SDS011;37534;39.772;2.718;2023-01-16T05:36:01;0.52;;;0.32;;
51459;SDS011;37534;39.772;2.718;2023-01-16T05:38:27;3.63;;;0.98;;
51459;SDS011;37534;39.772;2.718;2023-01-16T05:40:52;1.85;;;1.15;;
51459;SDS011;37534;39.772;2.718;2023-01-16T05:43:18;5.55;;;1.35;;
51459;SDS011;37534;39.772;2.718;2023-01-16T05:45:44;1.02;;;0.85;;
51459;SDS011;37534;39.772;2.718;2023-01-16T05:48:10;4.30;;;0.98;;
51459;SDS011;37534;39.772;2.718;2023-01-16T05:50:35;3.20;;;0.98;;
51459;SDS011;37534;39.772;2.718;2023-01-16T05:53:01;2.75;;;1.15;;
51459;SDS011;37534;39.772;2.718;2023-01-16T05:55:27;0.98;;;0.73;;
51459;SDS011;37534;39.772;2.718;2023-01-16T05:57:52;0.60;;;0.60;;
51459;SDS011;37534;39.772;2.718;2023-01-16T06:00:18;3.10;;;1.17;;
51459;SDS011;37534;39.772;2.718;2023-01-16T06:02:44;1.13;;;0.80;;
51459;SDS011;37534;39.772;2.718;2023-01-16T06:05:13;2.88;;;1.23;;
51459;SDS011;37534;39.772;2.718;2023-01-16T06:07:39;2.30;;;1.17;;
51459;SDS011;37534;39.772;2.718;2023-01-16T06:10:07;2.55;;;1.55;;
51459;SDS011;37534;39.772;2.718;2023-01-16T06:12:34;5.70;;;2.03;;
51459;SDS011;37534;39.772;2.718;2023-01-16T06:14:59;2.72;;;1.30;;
51459;SDS011;37534;39.772;2.718;2023-01-16T06:17:25;16.33;;;1.67;;
51459;SDS011;37534;39.772;2.718;2023-01-16T06:19:50;0.88;;;0.88;;
51459;SDS011;37534;39.772;2.718;2023-01-16T06:22:16;4.55;;;1.45;;
51459;SDS011;37534;39.772;2.718;2023-01-16T06:24:41;0.98;;;0.82;;
51459;SDS011;37534;39.772;2.718;2023-01-16T06:27:07;2.58;;;1.10;;
51459;SDS011;37534;39.772;2.718;2023-01-16T06:29:33;5.05;;;1.20;;
51459;SDS011;37534;39.772;2.718;2023-01-16T06:31:59;2.20;;;1.00;;
51459;SDS011;37534;39.772;2.718;2023-01-16T06:34:24;1.50;;;1.15;;
51459;SDS011;37534;39.772;2.718;2023-01-16T06:36:50;1.63;;;0.73;;
51459;SDS011;37534;39.772;2.718;2023-01-16T06:39:16;1.73;;;1.48;;
51459;SDS011;37534;39.772;2.718;2023-01-16T06:41:42;7.30;;;1.38;;
51459;SDS011;37534;39.772;2.718;2023-01-16T06:44:08;2.50;;;1.40;;
51459;SDS011;37534;39.772;2.718;2023-01-16T06:46:34;4.20;;;1.08;;
51459;SDS011;37534;39.772;2.718;2023-01-16T06:49:00;5.10;;;0.98;;
51459;SDS011;37534;39.772;2.718;2023-01-16T06:51:26;8.10;;;1.50;;
51459;SDS011;37534;39.772;2.718;2023-01-16T06:56:23;1.63;;;1.30;;
51459;SDS011;37534;39.772;2.718;2023-01-16T06:58:49;2.47;;;1.17;;
51459;SDS011;37534;39.772;2.718;2023-01-16T07:01:14;5.50;;;1.17;;
51459;SDS011;37534;39.772;2.718;2023-01-16T07:03:40;9.55;;;1.67;;
51459;SDS011;37534;39.772;2.718;2023-01-16T07:06:06;6.93;;;1.50;;
51459;SDS011;37534;39.772;2.718;2023-01-16T07:08:31;4.63;;;1.58;;
51459;SDS011;37534;39.772;2.718;2023-01-16T07:10:58;4.70;;;1.27;;
51459;SDS011;37534;39.772;2.718;2023-01-16T07:13:25;1.60;;;0.90;;
51459;SDS011;37534;39.772;2.718;2023-01-16T07:15:53;2.92;;;1.45;;
51459;SDS011;37534;39.772;2.718;2023-01-16T07:18:37;6.47;;;1.58;;
51459;SDS011;37534;39.772;2.718;2023-01-16T07:21:35;5.05;;;1.80;;
51459;SDS011;37534;39.772;2.718;2023-01-16T07:24:22;6.45;;;1.33;;
51459;SDS011;37534;39.772;2.718;2023-01-16T07:26:51;8.32;;;1.85;;
51459;SDS011;37534;39.772;2.718;2023-01-16T07:29:22;10.15;;;1.85;;
51459;SDS011;37534;39.772;2.718;2023-01-16T07:31:49;4.07;;;1.65;;
51459;SDS011;37534;39.772;2.718;2023-01-16T07:34:14;4.85;;;2.03;;
51459;SDS011;37534;39.772;2.718;2023-01-16T07:36:40;5.97;;;2.15;;
51459;SDS011;37534;39.772;2.718;2023-01-16T07:39:06;6.22;;;1.88;;
51459;SDS011;37534;39.772;2.718;2023-01-16T07:41:31;10.93;;;2.22;;
51459;SDS011;37534;39.772;2.718;2023-01-16T07:43:57;8.80;;;1.67;;
51459;SDS011;37534;39.772;2.718;2023-01-16T07:46:22;5.07;;;1.88;;
51459;SDS011;37534;39.772;2.718;2023-01-16T07:48:48;5.18;;;2.30;;
51459;SDS011;37534;39.772;2.718;2023-01-16T07:51:15;8.68;;;2.72;;
51459;SDS011;37534;39.772;2.718;2023-01-16T07:53:41;11.63;;;3.38;;
51459;SDS011;37534;39.772;2.718;2023-01-16T07:56:06;11.25;;;2.75;;
51459;SDS011;37534;39.772;2.718;2023-01-16T07:58:32;4.05;;;1.83;;
51459;SDS011;37534;39.772;2.718;2023-01-16T08:00:57;10.38;;;3.05;;
51459;SDS011;37534;39.772;2.718;2023-01-16T08:03:23;6.40;;;2.08;;
51459;SDS011;37534;39.772;2.718;2023-01-16T08:05:54;14.43;;;2.33;;
51459;SDS011;37534;39.772;2.718;2023-01-16T08:08:21;12.52;;;3.25;;
51459;SDS011;37534;39.772;2.718;2023-01-16T08:10:46;16.23;;;3.15;;
51459;SDS011;37534;39.772;2.718;2023-01-16T08:13:12;14.88;;;3.10;;
51459;SDS011;37534;39.772;2.718;2023-01-16T08:15:37;13.88;;;3.72;;
51459;SDS011;37534;39.772;2.718;2023-01-16T08:18:03;7.32;;;3.25;;
51459;SDS011;37534;39.772;2.718;2023-01-16T08:20:28;14.60;;;3.72;;
51459;SDS011;37534;39.772;2.718;2023-01-16T08:22:54;14.07;;;4.35;;
51459;SDS011;37534;39.772;2.718;2023-01-16T08:25:22;8.90;;;2.88;;
51459;SDS011;37534;39.772;2.718;2023-01-16T08:27:49;12.88;;;4.97;;
51459;SDS011;37534;39.772;2.718;2023-01-16T08:30:15;6.60;;;2.92;;
51459;SDS011;37534;39.772;2.718;2023-01-16T08:32:41;13.75;;;3.92;;
51459;SDS011;37534;39.772;2.718;2023-01-16T08:35:07;8.52;;;3.22;;
51459;SDS011;37534;39.772;2.718;2023-01-16T08:37:33;10.43;;;3.20;;
51459;SDS011;37534;39.772;2.718;2023-01-16T08:39:59;12.80;;;4.25;;
51459;SDS011;37534;39.772;2.718;2023-01-16T08:42:24;9.05;;;3.55;;
51459;SDS011;37534;39.772;2.718;2023-01-16T08:45:09;10.45;;;3.30;;
51459;SDS011;37534;39.772;2.718;2023-01-16T08:47:54;19.65;;;4.47;;
51459;SDS011;37534;39.772;2.718;2023-01-16T08:50:38;14.63;;;3.95;;
51459;SDS011;37534;39.772;2.718;2023-01-16T08:53:22;14.32;;;5.40;;
51459;SDS011;37534;39.772;2.718;2023-01-16T08:55:47;19.92;;;5.60;;
51459;SDS011;37534;39.772;2.718;2023-01-16T08:58:14;20.88;;;4.82;;
51459;SDS011;37534;39.772;2.718;2023-01-16T09:00:40;12.35;;;5.28;;
51459;SDS011;37534;39.772;2.718;2023-01-16T09:03:06;19.10;;;5.55;;
51459;SDS011;37534;39.772;2.718;2023-01-16T09:05:31;27.48;;;8.25;;
51459;SDS011;37534;39.772;2.718;2023-01-16T09:07:57;21.63;;;4.70;;
51459;SDS011;37534;39.772;2.718;2023-01-16T09:10:23;11.82;;;4.38;;
51459;SDS011;37534;39.772;2.718;2023-01-16T09:12:49;14.77;;;4.15;;
51459;SDS011;37534;39.772;2.718;2023-01-16T09:15:34;11.35;;;3.70;;
51459;SDS011;37534;39.772;2.718;2023-01-16T09:17:59;9.75;;;4.30;;
51459;SDS011;37534;39.772;2.718;2023-01-16T09:20:25;18.08;;;4.57;;
51459;SDS011;37534;39.772;2.718;2023-01-16T09:23:00;14.25;;;3.65;;
51459;SDS011;37534;39.772;2.718;2023-01-16T09:25:27;13.70;;;3.17;;
51459;SDS011;37534;39.772;2.718;2023-01-16T09:27:54;12.32;;;3.97;;
51459;SDS011;37534;39.772;2.718;2023-01-16T09:30:19;6.68;;;3.30;;
51459;SDS011;37534;39.772;2.718;2023-01-16T09:32:45;15.07;;;3.92;;
51459;SDS011;37534;39.772;2.718;2023-01-16T09:35:12;4.53;;;2.63;;
51459;SDS011;37534;39.772;2.718;2023-01-16T09:37:38;7.05;;;2.75;;
51459;SDS011;37534;39.772;2.718;2023-01-16T09:40:07;12.75;;;4.07;;
51459;SDS011;37534;39.772;2.718;2023-01-16T09:45:52;14.07;;;3.85;;
51459;SDS011;37534;39.772;2.718;2023-01-16T09:48:23;9.25;;;2.95;;
51459;SDS011;37534;39.772;2.718;2023-01-16T09:50:54;13.68;;;3.00;;
51459;SDS011;37534;39.772;2.718;2023-01-16T09:56:34;6.35;;;2.85;;
51459;SDS011;37534;39.772;2.718;2023-01-16T10:04:56;8.85;;;3.53;;
51459;SDS011;37534;39.772;2.718;2023-01-16T10:12:54;7.63;;;3.15;;
51459;SDS011;37534;39.772;2.718;2023-01-16T10:15:24;4.53;;;2.72;;
51459;SDS011;37534;39.772;2.718;2023-01-16T10:18:20;9.75;;;2.88;;
51459;SDS011;37534;39.772;2.718;2023-01-16T10:24:18;12.10;;;2.80;;
51459;SDS011;37534;39.772;2.718;2023-01-16T10:26:59;9.13;;;3.65;;
51459;SDS011;37534;39.772;2.718;2023-01-16T10:37:58;6.68;;;3.00;;
51459;SDS011;37534;39.772;2.718;2023-01-16T10:40:51;10.57;;;3.30;;
51459;SDS011;37534;39.772;2.718;2023-01-16T10:43:28;14.63;;;3.67;;
51459;SDS011;37534;39.772;2.718;2023-01-16T10:46:21;8.80;;;4.00;;
51459;SDS011;37534;39.772;2.718;2023-01-16T10:49:15;10.50;;;3.40;;
51459;SDS011;37534;39.772;2.718;2023-01-16T10:51:57;9.02;;;3.97;;
51459;SDS011;37534;39.772;2.718;2023-01-16T10:54:25;8.23;;;3.38;;
51459;SDS011;37534;39.772;2.718;2023-01-16T10:56:51;6.43;;;2.80;;
51459;SDS011;37534;39.772;2.718;2023-01-16T10:59:16;11.85;;;2.95;;
51459;SDS011;37534;39.772;2.718;2023-01-16T11:01:43;15.48;;;3.78;;
51459;SDS011;37534;39.772;2.718;2023-01-16T11:04:11;15.15;;;3.78;;
51459;SDS011;37534;39.772;2.718;2023-01-16T11:06:37;10.68;;;3.95;;
51459;SDS011;37534;39.772;2.718;2023-01-16T11:09:16;11.68;;;3.67;;
51459;SDS011;37534;39.772;2.718;2023-01-16T11:11:44;7.47;;;3.15;;
51459;SDS011;37534;39.772;2.718;2023-01-16T11:14:32;8.02;;;2.97;;
51459;SDS011;37534;39.772;2.718;2023-01-16T11:17:33;13.40;;;2.92;;
51459;SDS011;37534;39.772;2.718;2023-01-16T11:20:27;10.68;;;3.22;;
51459;SDS011;37534;39.772;2.718;2023-01-16T11:22:57;8.63;;;3.60;;
51459;SDS011;37534;39.772;2.718;2023-01-16T11:25:28;13.70;;;3.83;;
51459;SDS011;37534;39.772;2.718;2023-01-16T11:27:55;7.47;;;3.60;;
51459;SDS011;37534;39.772;2.718;2023-01-16T11:30:30;13.15;;;3.60;;
51459;SDS011;37534;39.772;2.718;2023-01-16T11:32:57;6.13;;;2.47;;
51459;SDS011;37534;39.772;2.718;2023-01-16T11:35:30;19.77;;;3.20;;
51459;SDS011;37534;39.772;2.718;2023-01-16T11:37:57;10.50;;;3.22;;
51459;SDS011;37534;39.772;2.718;2023-01-16T11:40:25;13.15;;;3.30;;
51459;SDS011;37534;39.772;2.718;2023-01-16T11:45:39;16.58;;;4.00;;
51459;SDS011;37534;39.772;2.718;2023-01-16T11:48:41;10.67;;;3.83;;
51459;SDS011;37534;39.772;2.718;2023-01-16T11:51:14;7.07;;;3.42;;
51459;SDS011;37534;39.772;2.718;2023-01-16T11:53:43;16.50;;;6.18;;
51459;SDS011;37534;39.772;2.718;2023-01-16T12:04:34;12.15;;;4.43;;
51459;SDS011;37534;39.772;2.718;2023-01-16T12:09:54;19.10;;;5.32;;
51459;SDS011;37534;39.772;2.718;2023-01-16T12:12:35;12.77;;;4.20;;
51459;SDS011;37534;39.772;2.718;2023-01-16T12:21:34;14.32;;;3.72;;
51459;SDS011;37534;39.772;2.718;2023-01-16T12:26:41;14.32;;;4.68;;
51459;SDS011;37534;39.772;2.718;2023-01-16T12:29:27;11.55;;;4.57;;
51459;SDS011;37534;39.772;2.718;2023-01-16T12:32:21;8.48;;;4.05;;
51459;SDS011;37534;39.772;2.718;2023-01-16T12:35:08;10.55;;;3.75;;
51459;SDS011;37534;39.772;2.718;2023-01-16T12:46:08;12.38;;;3.63;;
51459;SDS011;37534;39.772;2.718;2023-01-16T13:01:41;14.57;;;3.72;;
51459;SDS011;37534;39.772;2.718;2023-01-16T13:04:20;7.72;;;3.67;;
51459;SDS011;37534;39.772;2.718;2023-01-16T13:09:25;10.80;;;3.58;;
51459;SDS011;37534;39.772;2.718;2023-01-16T13:12:17;15.75;;;4.05;;
51459;SDS011;37534;39.772;2.718;2023-01-16T13:15:06;15.57;;;4.70;;
51459;SDS011;37534;39.772;2.718;2023-01-16T13:17:39;12.05;;;3.63;;
51459;SDS011;37534;39.772;2.718;2023-01-16T13:20:12;8.23;;;2.97;;
51459;SDS011;37534;39.772;2.718;2023-01-16T13:22:56;9.20;;;7.82;;
51459;SDS011;37534;39.772;2.718;2023-01-16T13:25:26;12.23;;;4.57;;
51459;SDS011;37534;39.772;2.718;2023-01-16T13:27:57;8.88;;;3.72;;
51459;SDS011;37534;39.772;2.718;2023-01-16T13:30:26;9.73;;;3.90;;
51459;SDS011;37534;39.772;2.718;2023-01-16T13:38:38;13.20;;;3.50;;
51459;SDS011;37534;39.772;2.718;2023-01-16T13:41:36;21.58;;;4.13;;
51459;SDS011;37534;39.772;2.718;2023-01-16T13:44:15;27.77;;;3.97;;
51459;SDS011;37534;39.772;2.718;2023-01-16T13:47:07;12.50;;;4.80;;
51459;SDS011;37534;39.772;2.718;2023-01-16T13:49:36;10.50;;;5.75;;
51459;SDS011;37534;39.772;2.718;2023-01-16T13:52:03;13.90;;;5.10;;
51459;SDS011;37534;39.772;2.718;2023-01-16T13:54:40;10.82;;;4.35;;
51459;SDS011;37534;39.772;2.718;2023-01-16T13:57:18;13.75;;;4.68;;
51459;SDS011;37534;39.772;2.718;2023-01-16T14:07:52;15.52;;;4.07;;
51459;SDS011;37534;39.772;2.718;2023-01-16T14:13:24;10.05;;;4.00;;
51459;SDS011;37534;39.772;2.718;2023-01-16T14:16:01;13.95;;;5.20;;
51459;SDS011;37534;39.772;2.718;2023-01-16T14:19:20;15.48;;;5.30;;
51459;SDS011;37534;39.772;2.718;2023-01-16T14:21:47;28.95;;;16.33;;
51459;SDS011;37534;39.772;2.718;2023-01-16T14:24:40;11.93;;;5.63;;
51459;SDS011;37534;39.772;2.718;2023-01-16T14:27:14;11.38;;;7.55;;
51459;SDS011;37534;39.772;2.718;2023-01-16T14:30:04;14.43;;;7.32;;
51459;SDS011;37534;39.772;2.718;2023-01-16T14:32:31;11.63;;;4.88;;
51459;SDS011;37534;39.772;2.718;2023-01-16T14:34:59;14.07;;;5.18;;
51459;SDS011;37534;39.772;2.718;2023-01-16T14:37:36;13.80;;;4.45;;
51459;SDS011;37534;39.772;2.718;2023-01-16T14:57:05;10.70;;;5.32;;
51459;SDS011;37534;39.772;2.718;2023-01-16T14:59:44;27.13;;;6.40;;
51459;SDS011;37534;39.772;2.718;2023-01-16T15:02:17;13.35;;;4.65;;
51459;SDS011;37534;39.772;2.718;2023-01-16T15:10:12;23.48;;;4.03;;
51459;SDS011;37534;39.772;2.718;2023-01-16T15:12:43;16.55;;;3.60;;
51459;SDS011;37534;39.772;2.718;2023-01-16T15:15:23;15.63;;;4.78;;
51459;SDS011;37534;39.772;2.718;2023-01-16T15:17:54;18.45;;;4.53;;
51459;SDS011;37534;39.772;2.718;2023-01-16T15:20:42;11.93;;;4.38;;
51459;SDS011;37534;39.772;2.718;2023-01-16T15:23:28;13.48;;;5.00;;
51459;SDS011;37534;39.772;2.718;2023-01-16T15:31:05;14.48;;;4.80;;
51459;SDS011;37534;39.772;2.718;2023-01-16T15:33:34;21.50;;;6.72;;
51459;SDS011;37534;39.772;2.718;2023-01-16T15:36:20;17.88;;;6.47;;
51459;SDS011;37534;39.772;2.718;2023-01-16T15:38:47;23.73;;;5.68;;
51459;SDS011;37534;39.772;2.718;2023-01-16T15:41:21;16.73;;;5.97;;
51459;SDS011;37534;39.772;2.718;2023-01-16T15:44:12;20.40;;;6.07;;
51459;SDS011;37534;39.772;2.718;2023-01-16T15:52:50;17.70;;;4.80;;
51459;SDS011;37534;39.772;2.718;2023-01-16T15:55:23;16.85;;;6.50;;
51459;SDS011;37534;39.772;2.718;2023-01-16T15:57:54;16.50;;;4.97;;
51459;SDS011;37534;39.772;2.718;2023-01-16T16:02:57;20.00;;;5.82;;
51459;SDS011;37534;39.772;2.718;2023-01-16T16:05:24;15.05;;;5.38;;
51459;SDS011;37534;39.772;2.718;2023-01-16T16:07:51;16.45;;;4.65;;
51459;SDS011;37534;39.772;2.718;2023-01-16T16:10:17;9.57;;;4.13;;
51459;SDS011;37534;39.772;2.718;2023-01-16T16:13:22;10.38;;;4.10;;
51459;SDS011;37534;39.772;2.718;2023-01-16T16:15:52;14.82;;;4.55;;
51459;SDS011;37534;39.772;2.718;2023-01-16T16:18:38;24.73;;;5.25;;
51459;SDS011;37534;39.772;2.718;2023-01-16T16:21:06;19.92;;;5.25;;
51459;SDS011;37534;39.772;2.718;2023-01-16T16:23:37;12.73;;;5.80;;
51459;SDS011;37534;39.772;2.718;2023-01-16T16:26:03;20.58;;;6.13;;
51459;SDS011;37534;39.772;2.718;2023-01-16T16:36:40;16.25;;;5.13;;
51459;SDS011;37534;39.772;2.718;2023-01-16T16:47:43;17.48;;;6.35;;
51459;SDS011;37534;39.772;2.718;2023-01-16T16:53:22;19.10;;;7.68;;
51459;SDS011;37534;39.772;2.718;2023-01-16T16:55:53;20.92;;;6.15;;
51459;SDS011;37534;39.772;2.718;2023-01-16T16:58:32;17.10;;;5.47;;
51459;SDS011;37534;39.772;2.718;2023-01-16T17:01:06;12.20;;;4.95;;
51459;SDS011;37534;39.772;2.718;2023-01-16T17:03:41;17.27;;;5.60;;
51459;SDS011;37534;39.772;2.718;2023-01-16T17:06:10;17.92;;;4.43;;
51459;SDS011;37534;39.772;2.718;2023-01-16T17:08:40;19.17;;;4.53;;
51459;SDS011;37534;39.772;2.718;2023-01-16T17:11:07;11.50;;;4.97;;
51459;SDS011;37534;39.772;2.718;2023-01-16T17:13:35;9.57;;;3.47;;
51459;SDS011;37534;39.772;2.718;2023-01-16T17:16:01;16.30;;;4.35;;
51459;SDS011;37534;39.772;2.718;2023-01-16T17:18:26;14.35;;;4.90;;
51459;SDS011;37534;39.772;2.718;2023-01-16T17:20:52;18.52;;;4.25;;
51459;SDS011;37534;39.772;2.718;2023-01-16T17:23:19;14.07;;;3.97;;
51459;SDS011;37534;39.772;2.718;2023-01-16T17:25:45;8.85;;;3.58;;
51459;SDS011;37534;39.772;2.718;2023-01-16T17:28:11;22.75;;;4.53;;
51459;SDS011;37534;39.772;2.718;2023-01-16T17:30:38;15.20;;;6.28;;
51459;SDS011;37534;39.772;2.718;2023-01-16T17:35:38;11.35;;;4.05;;
51459;SDS011;37534;39.772;2.718;2023-01-16T17:38:19;23.13;;;6.33;;
51459;SDS011;37534;39.772;2.718;2023-01-16T17:40:45;20.40;;;5.90;;
51459;SDS011;37534;39.772;2.718;2023-01-16T17:43:14;11.55;;;4.32;;
51459;SDS011;37534;39.772;2.718;2023-01-16T17:45:59;15.30;;;4.90;;
51459;SDS011;37534;39.772;2.718;2023-01-16T17:48:28;23.92;;;5.95;;
51459;SDS011;37534;39.772;2.718;2023-01-16T17:50:55;10.07;;;4.32;;
51459;SDS011;37534;39.772;2.718;2023-01-16T17:53:24;17.40;;;4.97;;
51459;SDS011;37534;39.772;2.718;2023-01-16T17:55:51;20.50;;;5.45;;
51459;SDS011;37534;39.772;2.718;2023-01-16T17:58:22;22.13;;;5.03;;
51459;SDS011;37534;39.772;2.718;2023-01-16T18:01:01;22.67;;;5.45;;
51459;SDS011;37534;39.772;2.718;2023-01-16T18:03:29;18.38;;;6.32;;
51459;SDS011;37534;39.772;2.718;2023-01-16T18:06:02;17.88;;;5.60;;
51459;SDS011;37534;39.772;2.718;2023-01-16T18:08:29;22.67;;;7.78;;
51459;SDS011;37534;39.772;2.718;2023-01-16T18:10:56;12.70;;;5.28;;
51459;SDS011;37534;39.772;2.718;2023-01-16T18:13:23;16.25;;;5.93;;
51459;SDS011;37534;39.772;2.718;2023-01-16T18:16:13;11.40;;;5.15;;
51459;SDS011;37534;39.772;2.718;2023-01-16T18:18:58;10.73;;;4.63;;
51459;SDS011;37534;39.772;2.718;2023-01-16T18:21:24;15.63;;;6.00;;
51459;SDS011;37534;39.772;2.718;2023-01-16T18:24:08;12.55;;;4.53;;